Time;durP1;ratioP1;P1;durP2;ratioP2;P2;SDS_P1;SDS_P2;PMS_P1;PMS_P2;Temp;Humidity;BMP_temperature;BMP_pressure;BME280_temperature;BME280_humidity;BME280_pressure;Samples;Min_cycle;Max_cycle;Signal;HPM_P1;HPM_P2
2022/06/06 00:02:05;;;;;;;;;;;25.80;96.20;;;;;;5096762;28;19907;-58
2022/06/06 00:04:33;;;;;;;;;;;25.80;96.20;;;;;;5104837;28;19935;-60
2022/06/06 00:06:59;;;;;;;;;;;25.80;96.30;;;;;;5103811;28;19904;-54
2022/06/06 00:09:26;;;;;;;;;;;25.80;96.30;;;;;;5096832;28;19913;-50
2022/06/06 00:11:55;;;;;;;;;;;25.80;96.30;;;;;;5091263;28;19911;-49
2022/06/06 00:14:21;;;;;;;;;;;25.70;96.40;;;;;;5097447;28;19908;-49
2022/06/06 00:16:47;;;;;;;;;;;25.70;96.40;;;;;;5083976;28;19908;-55
2022/06/06 00:19:13;;;;;;;;;;;25.60;96.40;;;;;;5100508;28;19912;-46
2022/06/06 00:21:41;;;;;;;;;;;25.50;96.40;;;;;;5080971;28;19904;-47
2022/06/06 00:24:07;;;;;;;;;;;25.50;96.40;;;;;;5080517;28;19905;-45
2022/06/06 00:26:34;;;;;;;;;;;25.50;96.60;;;;;;5101590;28;24068;-45
2022/06/06 00:29:00;;;;;;;;;;;25.50;96.60;;;;;;5100539;28;20135;-47
2022/06/06 00:36:59;;;;;;;;;;;25.50;96.60;;;;;;5103380;28;19934;-43
2022/06/06 00:39:25;;;;;;;;;;;25.50;96.70;;;;;;5098316;28;20212;-49
2022/06/06 00:41:53;;;;;;;;;;;25.50;96.60;;;;;;5104442;28;19919;-53
2022/06/06 00:44:21;;;;;;;;;;;25.50;96.80;;;;;;5090093;28;19904;-44
2022/06/06 00:46:57;;;;;;;;;;;25.50;96.90;;;;;;5092847;28;19904;-56
2022/06/06 00:49:32;;;;;;;;;;;25.50;97.00;;;;;;5100444;28;20218;-49
2022/06/06 00:51:58;;;;;;;;;;;25.30;97.10;;;;;;5115841;28;19903;-46
2022/06/06 00:54:25;;;;;;;;;;;25.20;97.40;;;;;;5110648;28;19983;-49
2022/06/06 00:56:55;;;;;;;;;;;25.20;97.40;;;;;;5090526;28;24074;-52
2022/06/06 00:59:23;;;;;;;;;;;25.20;97.60;;;;;;5086350;28;19915;-52
2022/06/06 01:01:50;;;;;;;;;;;25.10;97.60;;;;;;5094607;28;20092;-51
2022/06/06 01:04:19;;;;;;;;;;;25.10;97.60;;;;;;5082109;28;19916;-48
2022/06/06 01:06:45;;;;;;;;;;;25.10;97.60;;;;;;5097098;28;19979;-59
2022/06/06 01:09:13;;;;;;;;;;;25.00;97.60;;;;;;5092613;28;25063;-63
2022/06/06 01:11:44;;;;;;;;;;;25.10;97.60;;;;;;5093410;28;20030;-50
2022/06/06 01:14:12;;;;;;;;;;;25.10;97.40;;;;;;5102162;28;20212;-56
2022/06/06 01:16:58;;;;;;;;;;;25.10;97.30;;;;;;5100555;28;20139;-50
2022/06/06 01:19:57;;;;;;;;;;;25.00;97.40;;;;;;5062778;28;24101;-48
2022/06/06 01:22:34;;;;;;;;;;;25.00;97.20;;;;;;5039168;28;19915;-52
2022/06/06 01:25:05;;;;;;;;;;;24.90;97.50;;;;;;5083749;28;19939;-52
2022/06/06 01:27:50;;;;;;;;;;;24.90;97.30;;;;;;5082285;28;19904;-49
2022/06/06 01:30:22;;;;;;;;;;;24.90;97.40;;;;;;5086675;28;19913;-66
2022/06/06 01:32:59;;;;;;;;;;;24.90;97.30;;;;;;5086424;28;19926;-49
2022/06/06 01:35:28;;;;;;;;;;;24.90;97.20;;;;;;5086063;28;19913;-53
2022/06/06 01:37:55;;;;;;;;;;;24.90;97.10;;;;;;5086062;28;19904;-50
2022/06/06 01:40:21;;;;;;;;;;;24.90;97.30;;;;;;5080624;28;19911;-50
2022/06/06 01:42:56;;;;;;;;;;;24.90;97.30;;;;;;5083824;28;20096;-51
2022/06/06 01:45:22;;;;;;;;;;;24.90;97.20;;;;;;5086618;28;24089;-50
2022/06/06 01:47:51;;;;;;;;;;;24.90;97.10;;;;;;5086236;28;20097;-48
2022/06/06 01:50:18;;;;;;;;;;;24.90;97.10;;;;;;5085185;28;19934;-49
2022/06/06 01:52:59;;;;;;;;;;;24.90;97.10;;;;;;5085327;28;19918;-51
2022/06/06 01:55:26;;;;;;;;;;;24.80;97.10;;;;;;5085722;28;20066;-45
2022/06/06 01:57:53;;;;;;;;;;;24.80;97.30;;;;;;5085996;28;19904;-49
2022/06/06 02:00:20;;;;;;;;;;;24.80;97.30;;;;;;5086228;28;19954;-45
2022/06/06 02:02:46;;;;;;;;;;;24.70;97.30;;;;;;5086317;28;24059;-53
2022/06/06 02:05:13;;;;;;;;;;;24.80;97.30;;;;;;5086049;28;19912;-49
2022/06/06 02:07:40;;;;;;;;;;;24.80;97.20;;;;;;5091257;28;19908;-47
2022/06/06 02:10:09;;;;;;;;;;;24.80;97.10;;;;;;5085413;28;19972;-59
2022/06/06 02:12:37;;;;;;;;;;;24.90;97.00;;;;;;5085916;28;19909;-56
2022/06/06 02:15:04;;;;;;;;;;;24.90;96.90;;;;;;5085572;28;19951;-53
2022/06/06 02:17:30;;;;;;;;;;;25.00;96.70;;;;;;5085658;28;24072;-56
2022/06/06 02:19:56;;;;;;;;;;;25.10;96.60;;;;;;5085773;28;19908;-59
2022/06/06 02:22:22;;;;;;;;;;;25.10;96.40;;;;;;5085258;28;19939;-55
2022/06/06 02:24:48;;;;;;;;;;;25.10;96.30;;;;;;5085458;28;24063;-55
2022/06/06 02:27:14;;;;;;;;;;;25.10;96.20;;;;;;5097304;28;19938;-55
2022/06/06 02:29:41;;;;;;;;;;;25.10;96.20;;;;;;5105563;28;19923;-53
2022/06/06 02:32:08;;;;;;;;;;;25.10;96.10;;;;;;5105319;28;19965;-53
2022/06/06 02:34:34;;;;;;;;;;;25.10;96.10;;;;;;5105018;28;19965;-54
2022/06/06 02:37:01;;;;;;;;;;;25.10;96.10;;;;;;5105734;28;19912;-57
2022/06/06 02:39:27;;;;;;;;;;;25.10;96.00;;;;;;5105343;28;19908;-56
2022/06/06 02:41:53;;;;;;;;;;;25.10;96.00;;;;;;5106381;28;20025;-57
2022/06/06 02:44:20;;;;;;;;;;;25.10;96.00;;;;;;5105292;28;19908;-54
2022/06/06 02:46:47;;;;;;;;;;;25.10;95.90;;;;;;5105757;28;19900;-56
2022/06/06 02:49:13;;;;;;;;;;;25.10;95.90;;;;;;5105991;28;20212;-54
2022/06/06 02:51:39;;;;;;;;;;;25.10;95.80;;;;;;5105113;28;19900;-59
2022/06/06 02:54:05;;;;;;;;;;;25.10;95.90;;;;;;5105384;28;19908;-54
2022/06/06 02:56:31;;;;;;;;;;;25.10;95.90;;;;;;5105646;28;19935;-57
2022/06/06 02:59:00;;;;;;;;;;;25.10;95.90;;;;;;5105603;28;19908;-55
2022/06/06 03:01:26;;;;;;;;;;;25.10;95.80;;;;;;5105248;28;24117;-56
2022/06/06 03:03:52;;;;;;;;;;;25.10;95.80;;;;;;5098836;28;20203;-55
2022/06/06 03:06:32;;;;;;;;;;;25.00;95.80;;;;;;5092864;28;19911;-55
2022/06/06 03:08:58;;;;;;;;;;;25.00;95.80;;;;;;5102637;28;19904;-54
2022/06/06 03:11:30;;;;;;;;;;;25.00;95.70;;;;;;5098645;28;19910;-57
2022/06/06 03:14:15;;;;;;;;;;;25.00;95.70;;;;;;5088144;28;25114;-54
2022/06/06 03:22:40;;;;;;;;;;;25.00;95.60;;;;;;5084684;28;19929;-55
2022/06/06 03:25:06;;;;;;;;;;;24.90;95.60;;;;;;5084318;28;24102;-62
2022/06/06 03:27:51;;;;;;;;;;;24.90;95.60;;;;;;5084747;28;24085;-54
2022/06/06 03:30:20;;;;;;;;;;;24.90;95.60;;;;;;5084351;28;24057;-54
2022/06/06 03:33:11;;;;;;;;;;;24.90;95.60;;;;;;5084087;28;24054;-57
2022/06/06 03:35:43;;;;;;;;;;;24.90;95.70;;;;;;5084206;28;19913;-55
2022/06/06 03:38:23;;;;;;;;;;;24.90;95.70;;;;;;5084108;28;19906;-56
2022/06/06 03:41:07;;;;;;;;;;;24.90;95.70;;;;;;5084028;28;19976;-54
2022/06/06 03:43:42;;;;;;;;;;;24.90;95.60;;;;;;5084015;28;19946;-55
2022/06/06 03:46:14;;;;;;;;;;;24.90;95.60;;;;;;5084396;28;20123;-57
2022/06/06 03:48:54;;;;;;;;;;;24.90;95.50;;;;;;5084471;28;24100;-58
2022/06/06 03:51:36;;;;;;;;;;;24.90;95.50;;;;;;5084563;28;24082;-56
2022/06/06 03:54:20;;;;;;;;;;;24.90;95.60;;;;;;5083891;28;25098;-54
2022/06/06 03:56:58;;;;;;;;;;;24.90;95.70;;;;;;5084407;28;19931;-55
2022/06/06 03:59:27;;;;;;;;;;;24.80;95.60;;;;;;5083635;28;19904;-58
2022/06/06 04:01:55;;;;;;;;;;;24.80;95.70;;;;;;5084392;28;20105;-54
2022/06/06 04:04:23;;;;;;;;;;;24.80;95.60;;;;;;5083778;28;19904;-55
2022/06/06 04:06:51;;;;;;;;;;;24.80;95.60;;;;;;5083984;28;20206;-55
2022/06/06 04:09:17;;;;;;;;;;;24.80;95.60;;;;;;5083627;28;24076;-56
2022/06/06 04:11:43;;;;;;;;;;;24.80;95.60;;;;;;5084052;28;20123;-57
2022/06/06 04:14:36;;;;;;;;;;;24.80;95.60;;;;;;5083219;28;19905;-54
2022/06/06 04:17:20;;;;;;;;;;;24.80;95.60;;;;;;5079651;28;24091;-57
2022/06/06 04:20:05;;;;;;;;;;;24.80;95.60;;;;;;5083029;28;19954;-56
2022/06/06 04:22:42;;;;;;;;;;;24.80;95.60;;;;;;5078958;28;19905;-57
2022/06/06 04:25:11;;;;;;;;;;;24.80;95.50;;;;;;5079676;28;20188;-56
2022/06/06 04:27:37;;;;;;;;;;;24.80;95.50;;;;;;5079546;28;19957;-56
2022/06/06 04:30:13;;;;;;;;;;;24.80;95.50;;;;;;5083435;28;19911;-55
2022/06/06 04:32:39;;;;;;;;;;;24.80;95.50;;;;;;5083575;28;20264;-55
2022/06/06 04:35:31;;;;;;;;;;;24.80;95.40;;;;;;5082236;28;19935;-55
2022/06/06 04:37:57;;;;;;;;;;;24.80;95.40;;;;;;5079649;28;20035;-56
2022/06/06 04:40:35;;;;;;;;;;;24.80;95.50;;;;;;5083586;28;24068;-54
2022/06/06 04:43:02;;;;;;;;;;;24.80;95.40;;;;;;5083455;28;19950;-55
2022/06/06 04:46:06;;;;;;;;;;;24.80;95.50;;;;;;5083549;28;19904;-55
2022/06/06 04:48:34;;;;;;;;;;;24.80;95.40;;;;;;5002320;28;19906;-55
2022/06/06 04:51:01;;;;;;;;;;;24.80;95.40;;;;;;5002173;28;19932;-52
2022/06/06 04:53:29;;;;;;;;;;;24.70;95.40;;;;;;5042207;28;20209;-55
2022/06/06 04:55:56;;;;;;;;;;;24.70;95.30;;;;;;5083544;28;24086;-54
2022/06/06 04:58:25;;;;;;;;;;;24.70;95.30;;;;;;5083143;28;19905;-57
2022/06/06 05:00:51;;;;;;;;;;;24.70;95.20;;;;;;5083565;28;19904;-59
2022/06/06 05:03:17;;;;;;;;;;;24.70;95.30;;;;;;5083462;28;19908;-57
2022/06/06 05:05:52;;;;;;;;;;;24.70;95.30;;;;;;5092943;28;24113;-55
2022/06/06 05:08:35;;;;;;;;;;;24.70;95.30;;;;;;5103836;28;19904;-58
2022/06/06 05:11:07;;;;;;;;;;;24.70;95.30;;;;;;5104086;28;19908;-56
2022/06/06 05:13:55;;;;;;;;;;;24.70;95.20;;;;;;5103418;28;19979;-56
2022/06/06 05:16:27;;;;;;;;;;;24.60;95.20;;;;;;5103513;28;19908;-56
2022/06/06 05:18:53;;;;;;;;;;;24.60;95.20;;;;;;5103378;28;19992;-56
2022/06/06 05:21:34;;;;;;;;;;;24.60;95.30;;;;;;5103455;28;19971;-56
2022/06/06 05:24:23;;;;;;;;;;;24.60;95.30;;;;;;5103943;28;20096;-54
2022/06/06 05:27:07;;;;;;;;;;;24.60;95.30;;;;;;5107330;28;19904;-55
2022/06/06 05:29:56;;;;;;;;;;;24.60;95.30;;;;;;5107206;28;19904;-55
2022/06/06 05:32:28;;;;;;;;;;;24.60;95.40;;;;;;5106520;28;19938;-55
2022/06/06 05:35:13;;;;;;;;;;;24.60;95.30;;;;;;5106742;28;19983;-56
2022/06/06 05:37:46;;;;;;;;;;;24.60;95.30;;;;;;5105513;28;19969;-55
2022/06/06 05:40:21;;;;;;;;;;;24.60;95.30;;;;;;5107014;28;19908;-55
2022/06/06 05:42:47;;;;;;;;;;;24.60;95.20;;;;;;5106469;28;24063;-54
2022/06/06 05:45:13;;;;;;;;;;;24.60;95.20;;;;;;5106537;28;19941;-54
2022/06/06 05:47:42;;;;;;;;;;;24.60;95.20;;;;;;5106691;28;19926;-55
2022/06/06 05:50:27;;;;;;;;;;;24.60;95.20;;;;;;5106756;28;20203;-62
2022/06/06 05:53:22;;;;;;;;;;;24.60;95.20;;;;;;5106570;28;20188;-57
2022/06/06 05:55:54;;;;;;;;;;;24.60;95.20;;;;;;5016044;28;19910;-54
2022/06/06 05:58:20;;;;;;;;;;;24.60;95.30;;;;;;5106645;28;24070;-51
2022/06/06 06:00:56;;;;;;;;;;;24.50;95.30;;;;;;5106810;28;19912;-55
2022/06/06 06:03:29;;;;;;;;;;;24.60;95.30;;;;;;5106589;28;19927;-54
2022/06/06 06:06:04;;;;;;;;;;;24.60;95.40;;;;;;5106402;28;19942;-57
2022/06/06 06:08:50;;;;;;;;;;;24.50;95.40;;;;;;5106336;28;19966;-55
2022/06/06 06:11:17;;;;;;;;;;;24.60;95.30;;;;;;5106899;28;19951;-55
2022/06/06 06:13:43;;;;;;;;;;;24.50;95.40;;;;;;5106506;28;20241;-55
2022/06/06 06:16:10;;;;;;;;;;;24.60;95.40;;;;;;5106609;28;20217;-54
2022/06/06 06:18:47;;;;;;;;;;;24.50;95.40;;;;;;5105864;28;19908;-56
2022/06/06 06:21:17;;;;;;;;;;;24.50;95.50;;;;;;5106672;28;19904;-56
2022/06/06 06:23:48;;;;;;;;;;;24.50;95.50;;;;;;5106086;28;19962;-55
2022/06/06 06:26:14;;;;;;;;;;;24.50;95.50;;;;;;5106251;28;19997;-57
2022/06/06 06:28:41;;;;;;;;;;;24.50;95.50;;;;;;5106198;28;19925;-55
2022/06/06 06:31:22;;;;;;;;;;;24.50;95.50;;;;;;5106282;28;20122;-55
2022/06/06 06:34:04;;;;;;;;;;;24.50;95.50;;;;;;5106224;28;24060;-55
2022/06/06 06:36:39;;;;;;;;;;;24.50;95.50;;;;;;5105369;28;19997;-55
2022/06/06 06:39:24;;;;;;;;;;;24.50;95.50;;;;;;5105784;28;19935;-56
2022/06/06 06:42:08;;;;;;;;;;;24.50;95.40;;;;;;5106279;28;25126;-54
2022/06/06 06:44:39;;;;;;;;;;;24.50;95.50;;;;;;5105624;28;19904;-57
2022/06/06 06:47:10;;;;;;;;;;;24.50;95.50;;;;;;5105297;28;19904;-53
2022/06/06 06:49:39;;;;;;;;;;;24.50;95.40;;;;;;5105607;28;19942;-54
2022/06/06 06:52:14;;;;;;;;;;;24.50;95.40;;;;;;5105348;28;19961;-56
2022/06/06 06:54:51;;;;;;;;;;;24.50;95.60;;;;;;5105660;28;19900;-54
2022/06/06 06:57:25;;;;;;;;;;;24.50;95.40;;;;;;5105393;28;19915;-57
2022/06/06 07:00:10;;;;;;;;;;;24.50;95.40;;;;;;5104085;28;19931;-53
2022/06/06 07:08:44;;;;;;;;;;;24.50;95.50;;;;;;5105496;28;20215;-57
2022/06/06 07:11:23;;;;;;;;;;;24.50;95.40;;;;;;5105409;28;19945;-54
2022/06/06 07:13:49;;;;;;;;;;;24.50;95.50;;;;;;5105424;28;19908;-58
2022/06/06 07:16:26;;;;;;;;;;;24.50;95.40;;;;;;5105356;28;19918;-53
2022/06/06 07:19:10;;;;;;;;;;;24.50;95.40;;;;;;5105067;28;25114;-56
2022/06/06 07:21:37;;;;;;;;;;;24.50;95.50;;;;;;5105297;28;20164;-56
2022/06/06 07:24:06;;;;;;;;;;;24.50;95.50;;;;;;5104874;28;19935;-56
2022/06/06 07:26:37;;;;;;;;;;;24.50;95.50;;;;;;5105299;28;20080;-54
2022/06/06 07:29:05;;;;;;;;;;;24.50;95.40;;;;;;5104714;28;20204;-55
2022/06/06 07:31:40;;;;;;;;;;;24.50;95.40;;;;;;5105211;28;20164;-57
2022/06/06 07:34:23;;;;;;;;;;;24.50;95.40;;;;;;5104728;28;19936;-54
2022/06/06 07:37:08;;;;;;;;;;;24.50;95.40;;;;;;5104287;28;19912;-54
2022/06/06 07:39:52;;;;;;;;;;;24.50;95.40;;;;;;5104472;28;19911;-54
2022/06/06 07:42:32;;;;;;;;;;;24.50;95.40;;;;;;5104464;28;19923;-56
2022/06/06 07:45:17;;;;;;;;;;;24.50;95.40;;;;;;5104523;28;20312;-56
2022/06/06 07:48:01;;;;;;;;;;;24.50;95.40;;;;;;5103441;28;19911;-54
2022/06/06 07:50:40;;;;;;;;;;;24.50;95.40;;;;;;5104680;28;20184;-59
2022/06/06 07:53:24;;;;;;;;;;;24.50;95.50;;;;;;5103988;28;24071;-56
2022/06/06 07:56:05;;;;;;;;;;;24.50;95.50;;;;;;5104564;28;19908;-60
2022/06/06 07:58:48;;;;;;;;;;;24.40;95.50;;;;;;5104268;28;20184;-54
2022/06/06 08:01:20;;;;;;;;;;;24.50;95.50;;;;;;5104466;28;19941;-55
2022/06/06 08:03:51;;;;;;;;;;;24.50;95.60;;;;;;5103992;28;19903;-54
2022/06/06 08:06:17;;;;;;;;;;;24.40;95.60;;;;;;5104370;28;20140;-56
2022/06/06 08:08:55;;;;;;;;;;;24.40;95.60;;;;;;5104152;28;19967;-55
2022/06/06 08:11:24;;;;;;;;;;;24.40;95.60;;;;;;5104589;28;19935;-55
2022/06/06 08:14:01;;;;;;;;;;;24.40;95.70;;;;;;5104211;28;19911;-54
2022/06/06 08:16:30;;;;;;;;;;;24.40;95.70;;;;;;5104070;28;19907;-54
2022/06/06 08:19:16;;;;;;;;;;;24.50;95.60;;;;;;5103853;28;19904;-58
2022/06/06 08:21:44;;;;;;;;;;;24.40;95.60;;;;;;5104172;28;19904;-60
2022/06/06 08:24:24;;;;;;;;;;;24.50;95.60;;;;;;5103947;28;20188;-56
2022/06/06 08:26:51;;;;;;;;;;;24.50;95.60;;;;;;5104559;28;19904;-59
2022/06/06 08:29:18;;;;;;;;;;;24.50;95.70;;;;;;5104068;28;20096;-54
2022/06/06 08:31:44;;;;;;;;;;;24.40;95.70;;;;;;5104373;28;19911;-56
2022/06/06 08:34:11;;;;;;;;;;;24.40;95.80;;;;;;5103641;28;19971;-55
2022/06/06 08:36:45;;;;;;;;;;;24.40;95.80;;;;;;5104142;28;20004;-57
2022/06/06 08:39:17;;;;;;;;;;;24.40;95.80;;;;;;5103741;28;19908;-56
2022/06/06 08:41:43;;;;;;;;;;;24.40;95.80;;;;;;5104114;28;19900;-54
2022/06/06 08:44:26;;;;;;;;;;;24.40;95.80;;;;;;5103932;28;19907;-59
2022/06/06 08:47:21;;;;;;;;;;;24.30;95.80;;;;;;5103973;28;19907;-56
2022/06/06 08:52:42;;;;;;;;;;;24.30;95.80;;;;;;5103789;28;19947;-55
2022/06/06 08:55:24;;;;;;;;;;;24.30;95.80;;;;;;5099705;28;20142;-55
2022/06/06 08:58:10;;;;;;;;;;;24.30;95.70;;;;;;5102000;28;19908;-57
2022/06/06 09:00:39;;;;;;;;;;;24.30;95.80;;;;;;5106748;28;24121;-55
2022/06/06 09:03:31;;;;;;;;;;;24.30;95.80;;;;;;5107443;28;19908;-54
2022/06/06 09:06:09;;;;;;;;;;;24.30;95.80;;;;;;5102831;28;20184;-55
2022/06/06 09:08:48;;;;;;;;;;;24.30;95.80;;;;;;5107442;28;19908;-54
2022/06/06 09:11:29;;;;;;;;;;;24.30;95.80;;;;;;5108296;28;19900;-59
2022/06/06 09:14:19;;;;;;;;;;;24.30;95.80;;;;;;5107599;28;25083;-55
2022/06/06 09:17:03;;;;;;;;;;;24.30;95.80;;;;;;5107920;28;19904;-54
2022/06/06 09:19:44;;;;;;;;;;;24.30;95.80;;;;;;5107129;28;20096;-55
2022/06/06 09:22:17;;;;;;;;;;;24.30;95.80;;;;;;5106944;28;19915;-55
2022/06/06 09:24:58;;;;;;;;;;;24.30;95.90;;;;;;5106701;28;19922;-57
2022/06/06 09:27:30;;;;;;;;;;;24.30;95.80;;;;;;5101880;28;24087;-54
2022/06/06 09:29:59;;;;;;;;;;;24.30;95.80;;;;;;5107232;28;19907;-56
2022/06/06 09:32:44;;;;;;;;;;;24.30;95.80;;;;;;5107353;28;19908;-56
2022/06/06 09:35:16;;;;;;;;;;;24.30;95.80;;;;;;5107271;28;19912;-55
2022/06/06 09:37:45;;;;;;;;;;;24.30;95.90;;;;;;5107047;28;19915;-55
2022/06/06 09:40:14;;;;;;;;;;;24.30;95.90;;;;;;5107049;28;19936;-55
2022/06/06 09:42:59;;;;;;;;;;;24.30;96.00;;;;;;5107049;28;19961;-59
2022/06/06 09:45:31;;;;;;;;;;;24.20;96.00;;;;;;5107148;28;20195;-57
2022/06/06 09:48:20;;;;;;;;;;;24.20;96.10;;;;;;5106777;28;19908;-56
2022/06/06 09:51:01;;;;;;;;;;;24.30;96.10;;;;;;5094126;28;20080;-55
2022/06/06 09:59:44;;;;;;;;;;;24.20;96.20;;;;;;5106810;28;19991;-54
2022/06/06 10:02:10;;;;;;;;;;;24.20;96.20;;;;;;5106562;28;19908;-57
2022/06/06 10:05:03;;;;;;;;;;;24.20;96.30;;;;;;5106598;28;19900;-57
2022/06/06 10:07:55;;;;;;;;;;;24.20;96.30;;;;;;5089639;28;20014;-58
2022/06/06 10:10:37;;;;;;;;;;;24.20;96.30;;;;;;5090759;28;19904;-55
2022/06/06 10:13:09;;;;;;;;;;;24.20;96.30;;;;;;5105925;28;19911;-57
2022/06/06 10:15:59;;;;;;;;;;;24.20;96.30;;;;;;5106462;28;19908;-56
2022/06/06 10:18:44;;;;;;;;;;;24.20;96.30;;;;;;5106140;28;19904;-55
2022/06/06 10:21:13;;;;;;;;;;;24.20;96.40;;;;;;5106913;28;19908;-53
2022/06/06 10:23:57;;;;;;;;;;;24.20;96.40;;;;;;5106374;28;19911;-55
2022/06/06 10:26:31;;;;;;;;;;;24.20;96.40;;;;;;5106653;28;19910;-54
2022/06/06 10:29:06;;;;;;;;;;;24.30;96.60;;;;;;5105934;28;19911;-57
2022/06/06 10:31:32;;;;;;;;;;;24.30;96.30;;;;;;5106626;28;20066;-56
2022/06/06 10:34:18;;;;;;;;;;;24.20;96.10;;;;;;5106319;28;19911;-60
2022/06/06 10:36:59;;;;;;;;;;;24.20;96.10;;;;;;5106167;28;19912;-54
2022/06/06 10:39:36;;;;;;;;;;;24.20;96.00;;;;;;5105681;28;20188;-54
2022/06/06 10:42:12;;;;;;;;;;;24.30;96.00;;;;;;5106523;28;19904;-54
2022/06/06 10:44:54;;;;;;;;;;;24.30;96.00;;;;;;5105866;28;19904;-53
2022/06/06 10:47:55;;;;;;;;;;;24.30;95.90;;;;;;5105725;28;19908;-54
2022/06/06 10:50:21;;;;;;;;;;;24.30;95.90;;;;;;5004449;28;19944;-57
2022/06/06 10:53:05;;;;;;;;;;;24.30;95.80;;;;;;5078600;28;24099;-57
2022/06/06 10:55:50;;;;;;;;;;;24.30;95.90;;;;;;5106385;28;19908;-57
2022/06/06 10:58:19;;;;;;;;;;;24.30;95.90;;;;;;5105661;28;24067;-56
2022/06/06 11:00:46;;;;;;;;;;;24.30;95.80;;;;;;5105778;28;24120;-56
2022/06/06 11:03:25;;;;;;;;;;;24.30;95.90;;;;;;5105350;28;19904;-58
2022/06/06 11:06:06;;;;;;;;;;;24.30;96.00;;;;;;5105539;28;19935;-56
2022/06/06 11:08:51;;;;;;;;;;;24.30;96.00;;;;;;5105067;28;19904;-58
2022/06/06 11:11:40;;;;;;;;;;;24.30;95.90;;;;;;5104554;28;19912;-63
2022/06/06 11:14:18;;;;;;;;;;;24.30;96.00;;;;;;5068573;28;19910;-61
2022/06/06 11:17:02;;;;;;;;;;;24.30;96.10;;;;;;5085549;28;19979;-57
2022/06/06 11:19:31;;;;;;;;;;;24.30;96.10;;;;;;5095242;28;19905;-57
2022/06/06 11:22:19;;;;;;;;;;;24.30;96.20;;;;;;5105460;28;19904;-62
2022/06/06 11:25:03;;;;;;;;;;;24.40;96.20;;;;;;5090976;28;19916;-55
2022/06/06 11:27:36;;;;;;;;;;;24.40;96.20;;;;;;5105178;28;20078;-57
2022/06/06 11:30:05;;;;;;;;;;;24.30;96.10;;;;;;5102477;28;19907;-57
2022/06/06 11:32:49;;;;;;;;;;;24.40;96.20;;;;;;5100617;28;19908;-57
2022/06/06 11:35:35;;;;;;;;;;;24.40;96.10;;;;;;5104816;28;19976;-57
2022/06/06 11:38:01;;;;;;;;;;;24.40;96.00;;;;;;5105219;28;19912;-61
2022/06/06 11:41:00;;;;;;;;;;;24.40;96.00;;;;;;5104714;28;20080;-59
2022/06/06 11:43:28;;;;;;;;;;;24.40;96.00;;;;;;5045933;28;19904;-57
2022/06/06 11:46:06;;;;;;;;;;;24.40;96.10;;;;;;5103184;28;20069;-58
2022/06/06 11:48:35;;;;;;;;;;;24.40;96.30;;;;;;5097019;28;19930;-60
2022/06/06 11:51:12;;;;;;;;;;;24.40;96.10;;;;;;5099128;28;19904;-56
2022/06/06 11:53:56;;;;;;;;;;;24.50;96.10;;;;;;5102192;28;19904;-56
2022/06/06 11:56:35;;;;;;;;;;;24.50;96.10;;;;;;5100674;28;24074;-58
2022/06/06 11:59:02;;;;;;;;;;;24.50;96.10;;;;;;5103237;28;19953;-62
2022/06/06 12:01:31;;;;;;;;;;;24.60;96.00;;;;;;5103881;28;24082;-58
2022/06/06 12:03:57;;;;;;;;;;;24.60;95.90;;;;;;5104640;28;20182;-56
2022/06/06 12:06:29;;;;;;;;;;;24.60;95.90;;;;;;5104851;28;24104;-58
2022/06/06 12:09:00;;;;;;;;;;;24.70;95.90;;;;;;5103612;28;24081;-56
2022/06/06 12:11:56;;;;;;;;;;;24.70;95.90;;;;;;5101660;28;19904;-54
2022/06/06 12:14:44;;;;;;;;;;;24.70;95.80;;;;;;5079172;28;19904;-57
2022/06/06 12:17:13;;;;;;;;;;;24.80;95.70;;;;;;5101076;28;19943;-53
2022/06/06 12:19:51;;;;;;;;;;;24.90;95.60;;;;;;5101388;28;20239;-55
2022/06/06 12:22:37;;;;;;;;;;;24.90;95.40;;;;;;5101706;28;20124;-55
2022/06/06 12:25:22;;;;;;;;;;;25.00;95.40;;;;;;5103002;28;19904;-56
2022/06/06 12:27:57;;;;;;;;;;;25.00;95.20;;;;;;5104824;28;19903;-56
2022/06/06 12:30:23;;;;;;;;;;;25.00;95.20;;;;;;5104933;28;19911;-58
2022/06/06 12:32:58;;;;;;;;;;;25.10;95.20;;;;;;5104850;28;20060;-59
2022/06/06 12:35:36;;;;;;;;;;;25.10;95.00;;;;;;5104072;28;19918;-57
2022/06/06 12:38:11;;;;;;;;;;;25.10;95.10;;;;;;5104803;28;19945;-57
2022/06/06 12:40:44;;;;;;;;;;;25.10;95.10;;;;;;5104968;28;19942;-56
2022/06/06 12:43:13;;;;;;;;;;;25.10;95.10;;;;;;5105154;28;19918;-56
2022/06/06 12:45:58;;;;;;;;;;;25.10;95.10;;;;;;5104360;28;19945;-55
2022/06/06 12:48:42;;;;;;;;;;;25.10;95.10;;;;;;5103801;28;19908;-57
2022/06/06 12:51:15;;;;;;;;;;;25.10;95.10;;;;;;5104221;28;19910;-56
2022/06/06 12:53:44;;;;;;;;;;;25.10;95.00;;;;;;5104288;28;19908;-56
2022/06/06 12:56:33;;;;;;;;;;;25.20;95.00;;;;;;5104402;28;24117;-56
2022/06/06 12:59:06;;;;;;;;;;;25.20;94.90;;;;;;5104437;28;19907;-56
2022/06/06 13:01:41;;;;;;;;;;;25.20;95.00;;;;;;5104545;28;19900;-57
2022/06/06 13:04:10;;;;;;;;;;;25.20;94.90;;;;;;5104234;28;24092;-56
2022/06/06 13:06:36;;;;;;;;;;;25.20;94.90;;;;;;5104759;28;19927;-56
2022/06/06 13:09:08;;;;;;;;;;;25.20;94.90;;;;;;5103672;28;19915;-56
2022/06/06 13:11:34;;;;;;;;;;;25.30;94.80;;;;;;5104260;28;20054;-56
2022/06/06 13:14:18;;;;;;;;;;;25.30;94.90;;;;;;5104131;28;19915;-58
2022/06/06 13:16:59;;;;;;;;;;;25.30;94.90;;;;;;5104464;28;19939;-56
2022/06/06 13:19:28;;;;;;;;;;;25.30;94.90;;;;;;5104103;28;24064;-56
2022/06/06 13:22:19;;;;;;;;;;;25.30;95.00;;;;;;5103918;28;19906;-56
2022/06/06 13:25:03;;;;;;;;;;;25.30;94.90;;;;;;5102688;28;19971;-57
2022/06/06 13:27:52;;;;;;;;;;;25.30;94.90;;;;;;5098695;28;19908;-57
2022/06/06 13:30:20;;;;;;;;;;;25.30;94.90;;;;;;5098776;28;24094;-58
2022/06/06 13:33:02;;;;;;;;;;;25.30;94.90;;;;;;5101275;28;19908;-56
2022/06/06 13:35:32;;;;;;;;;;;25.30;94.90;;;;;;5104212;28;19969;-57
2022/06/06 13:38:04;;;;;;;;;;;25.30;95.00;;;;;;5103625;28;19903;-59
2022/06/06 13:40:30;;;;;;;;;;;25.30;95.00;;;;;;5104311;28;19907;-57
2022/06/06 13:43:08;;;;;;;;;;;25.30;95.00;;;;;;5103643;28;19968;-56
2022/06/06 13:45:52;;;;;;;;;;;25.40;95.10;;;;;;5103624;28;19904;-57
2022/06/06 13:48:19;;;;;;;;;;;25.30;94.90;;;;;;5107304;28;19911;-59
2022/06/06 13:50:57;;;;;;;;;;;25.40;94.90;;;;;;5107561;28;19904;-58
2022/06/06 13:53:35;;;;;;;;;;;25.40;94.90;;;;;;5107108;28;19912;-57
2022/06/06 13:56:19;;;;;;;;;;;25.40;94.90;;;;;;5107507;28;19907;-57
2022/06/06 13:58:45;;;;;;;;;;;25.40;94.90;;;;;;5106976;28;19904;-57
2022/06/06 14:01:23;;;;;;;;;;;25.50;94.90;;;;;;5107492;28;20140;-57
2022/06/06 14:03:55;;;;;;;;;;;25.50;94.90;;;;;;5106757;28;20243;-58
2022/06/06 14:06:40;;;;;;;;;;;25.50;94.80;;;;;;5106767;28;19904;-58
2022/06/06 14:09:06;;;;;;;;;;;25.50;94.80;;;;;;5106979;28;19910;-57
2022/06/06 14:11:42;;;;;;;;;;;25.50;94.80;;;;;;5107051;28;24085;-61
2022/06/06 14:14:08;;;;;;;;;;;25.60;94.80;;;;;;5106690;28;20109;-58
2022/06/06 14:16:41;;;;;;;;;;;25.60;94.80;;;;;;5107153;28;19908;-62
2022/06/06 14:19:07;;;;;;;;;;;25.60;94.90;;;;;;5106606;28;19908;-59
2022/06/06 14:21:35;;;;;;;;;;;25.70;94.90;;;;;;5106772;28;19904;-58
2022/06/06 14:24:07;;;;;;;;;;;25.70;94.70;;;;;;5106280;28;20211;-59
2022/06/06 14:26:34;;;;;;;;;;;25.70;94.60;;;;;;5107010;28;19944;-58
2022/06/06 14:29:05;;;;;;;;;;;25.80;94.50;;;;;;5106472;28;19942;-57
2022/06/06 14:31:35;;;;;;;;;;;25.80;94.60;;;;;;5106692;28;19904;-57
2022/06/06 14:34:03;;;;;;;;;;;25.90;94.50;;;;;;5106439;28;20202;-58
2022/06/06 14:36:29;;;;;;;;;;;25.90;94.50;;;;;;5106676;28;19983;-57
2022/06/06 14:39:00;;;;;;;;;;;25.90;94.50;;;;;;5107055;28;19916;-57
2022/06/06 14:41:49;;;;;;;;;;;25.90;94.30;;;;;;5106292;28;19904;-56
2022/06/06 14:44:27;;;;;;;;;;;25.90;94.30;;;;;;5106649;28;19904;-57
2022/06/06 14:47:02;;;;;;;;;;;26.00;94.20;;;;;;5106602;28;19900;-57
2022/06/06 14:49:29;;;;;;;;;;;26.10;93.90;;;;;;5105911;28;19940;-58
2022/06/06 14:51:56;;;;;;;;;;;26.10;94.10;;;;;;5105951;28;20180;-56
2022/06/06 14:54:24;;;;;;;;;;;26.10;94.20;;;;;;5106205;28;19908;-60
2022/06/06 14:56:53;;;;;;;;;;;26.10;94.10;;;;;;5105652;28;19911;-58
2022/06/06 14:59:43;;;;;;;;;;;26.10;94.10;;;;;;5105688;28;20034;-56
2022/06/06 15:02:13;;;;;;;;;;;26.20;94.10;;;;;;5105782;28;19908;-57
2022/06/06 15:04:41;;;;;;;;;;;26.20;94.10;;;;;;5105977;28;19962;-57
2022/06/06 15:07:08;;;;;;;;;;;26.20;94.20;;;;;;5106270;28;19950;-57
2022/06/06 15:09:50;;;;;;;;;;;26.20;94.20;;;;;;5106226;28;24098;-59
2022/06/06 15:12:27;;;;;;;;;;;26.30;94.20;;;;;;5106110;28;20135;-58
2022/06/06 15:14:59;;;;;;;;;;;26.30;94.20;;;;;;5106001;28;20173;-57
2022/06/06 15:17:26;;;;;;;;;;;26.30;94.30;;;;;;5105567;28;19915;-57
2022/06/06 15:19:55;;;;;;;;;;;26.40;94.20;;;;;;5105821;28;19922;-57
2022/06/06 15:22:24;;;;;;;;;;;26.40;94.40;;;;;;5105531;28;19939;-60
2022/06/06 15:24:51;;;;;;;;;;;26.40;94.20;;;;;;5103968;28;19907;-57